createdAt,value
2018-01-19T00:01:55.645Z,97182.41
2018-01-19T00:04:23.341Z,97170.67
2018-01-19T00:06:50.801Z,97161.42
2018-01-19T00:09:18.251Z,97165.48
2018-01-19T00:11:46.116Z,97163.46
2018-01-19T00:14:13.564Z,97156.40
2018-01-19T00:16:41.025Z,97136.00
2018-01-19T00:19:08.818Z,97159.94
2018-01-19T00:21:36.266Z,97195.09
2018-01-19T00:24:03.762Z,97224.41
2018-01-19T00:26:32.119Z,97231.00
2018-01-19T00:28:59.568Z,97231.16
2018-01-19T00:31:27.021Z,97236.00
2018-01-19T00:33:54.848Z,97245.88
2018-01-19T00:36:22.301Z,97245.30
2018-01-19T00:38:49.749Z,97225.07
2018-01-19T00:41:17.481Z,97211.77
2018-01-19T00:43:44.945Z,97193.41
2018-01-19T00:46:12.389Z,97187.39
2018-01-19T00:48:40.097Z,97197.73
2018-01-19T00:51:07.543Z,97207.53
2018-01-19T00:53:34.992Z,97219.89
2018-01-19T00:56:02.856Z,97197.47
2018-01-19T00:58:30.309Z,97190.41
2018-01-19T01:00:57.761Z,97192.88
2018-01-19T01:03:25.451Z,97220.77
2018-01-19T01:05:52.911Z,97245.70
2018-01-19T01:08:20.371Z,97243.72
2018-01-19T01:10:48.240Z,97237.62
2018-01-19T01:13:15.692Z,97244.07
2018-01-19T01:15:43.135Z,97223.33
2018-01-19T01:18:10.792Z,97218.89
2018-01-19T01:20:38.233Z,97218.36
2018-01-19T01:23:05.685Z,97217.20
2018-01-19T01:25:33.600Z,97207.06
2018-01-19T01:28:01.437Z,97197.75
2018-01-19T01:30:28.880Z,97221.81
2018-01-19T01:32:56.605Z,97238.09
2018-01-19T01:35:24.051Z,97249.52
2018-01-19T01:37:51.501Z,97264.55
2018-01-19T01:40:19.280Z,97261.81
2018-01-19T01:42:46.725Z,97266.62
2018-01-19T01:45:14.164Z,97255.56
2018-01-19T01:47:41.988Z,97249.94
2018-01-19T01:50:09.436Z,97225.58
2018-01-19T01:52:36.888Z,97209.43
2018-01-19T01:55:04.991Z,97208.83
2018-01-19T01:57:32.436Z,97202.45
2018-01-19T01:59:59.881Z,97175.59
2018-01-19T02:02:27.661Z,97173.70
2018-01-19T02:04:55.120Z,97200.72
2018-01-19T02:07:22.573Z,97206.63
2018-01-19T02:09:50.341Z,97218.66
2018-01-19T02:12:17.788Z,97231.64
2018-01-19T02:14:45.240Z,97223.81
2018-01-19T02:17:13.044Z,97236.16
2018-01-19T02:19:40.491Z,97260.08
2018-01-19T02:22:07.933Z,97269.34
2018-01-19T02:24:35.735Z,97248.02
2018-01-19T02:27:03.191Z,97249.77
2018-01-19T02:29:31.009Z,97243.80
2018-01-19T02:31:59.016Z,97242.86
2018-01-19T02:34:26.455Z,97228.02
2018-01-19T02:36:53.901Z,97228.38
2018-01-19T02:39:21.565Z,97235.30
2018-01-19T02:41:49.018Z,97225.28
2018-01-19T02:44:16.496Z,97247.89
2018-01-19T02:46:44.396Z,97251.21
2018-01-19T02:49:11.836Z,97237.20
2018-01-19T02:51:39.282Z,97236.74
2018-01-19T02:54:07.085Z,97233.99
2018-01-19T02:56:34.527Z,97228.98
2018-01-19T02:59:01.973Z,97230.23
2018-01-19T03:01:29.758Z,97232.27
2018-01-19T03:03:57.220Z,97238.82
2018-01-19T03:06:24.697Z,97235.74
2018-01-19T03:08:52.461Z,97226.36
2018-01-19T03:11:19.921Z,97232.52
2018-01-19T03:13:47.380Z,97237.24
2018-01-19T03:16:15.097Z,97224.16
2018-01-19T03:18:42.545Z,97217.95
2018-01-19T03:21:10.007Z,97220.80
2018-01-19T03:23:37.824Z,97214.64
2018-01-19T03:26:05.272Z,97210.18
2018-01-19T03:28:32.725Z,97192.36
2018-01-19T03:31:02.665Z,97187.89
2018-01-19T03:33:30.112Z,97194.27
2018-01-19T03:35:57.560Z,97201.70
2018-01-19T03:38:25.656Z,97208.50
2018-01-19T03:40:53.105Z,97212.25
2018-01-19T03:43:20.556Z,97201.72
2018-01-19T03:45:48.345Z,97188.72
2018-01-19T03:48:15.793Z,97177.34
2018-01-19T03:50:43.242Z,97184.24
2018-01-19T03:53:10.815Z,97182.22
2018-01-19T03:55:38.267Z,97183.98
2018-01-19T03:58:05.717Z,97198.80
2018-01-19T04:00:33.414Z,97194.05
2018-01-19T04:03:00.866Z,97187.78
2018-01-19T04:05:28.309Z,97171.95
2018-01-19T04:07:56.015Z,97178.34
2018-01-19T04:10:23.466Z,97169.84
2018-01-19T04:12:50.912Z,97167.77
2018-01-19T04:15:18.793Z,97164.75
2018-01-19T04:17:46.247Z,97179.38
2018-01-19T04:20:13.693Z,97165.17
2018-01-19T04:22:41.476Z,97164.48
2018-01-19T04:25:08.923Z,97162.00
2018-01-19T04:27:36.371Z,97163.83
2018-01-19T04:30:04.082Z,97168.00
2018-01-19T04:32:34.460Z,97159.62
2018-01-19T04:35:01.904Z,97165.02
2018-01-19T04:37:29.924Z,97164.24
2018-01-19T04:39:57.389Z,97164.69
2018-01-19T04:42:24.836Z,97162.95
2018-01-19T04:44:52.620Z,97166.31
2018-01-19T04:47:20.059Z,97166.66
2018-01-19T04:49:48.469Z,97156.74
2018-01-19T04:52:16.528Z,97158.03
2018-01-19T04:54:43.976Z,97163.01
2018-01-19T04:57:11.426Z,97164.73
2018-01-19T04:59:39.209Z,97167.03
2018-01-19T05:02:06.653Z,97164.63
2018-01-19T05:04:34.115Z,97164.02
2018-01-19T05:07:01.905Z,97152.95
2018-01-19T05:09:29.361Z,97149.02
2018-01-19T05:11:56.807Z,97147.97
2018-01-19T05:14:24.577Z,97135.63
2018-01-19T05:16:52.037Z,97137.39
2018-01-19T05:19:19.481Z,97145.42
2018-01-19T05:21:47.248Z,97152.51
2018-01-19T05:24:14.800Z,97158.34
2018-01-19T05:26:42.245Z,97164.54
2018-01-19T05:29:10.562Z,97166.46
2018-01-19T05:31:38.025Z,97166.11
2018-01-19T05:34:05.872Z,97172.09
2018-01-19T05:36:33.880Z,97167.05
2018-01-19T05:39:01.339Z,97172.09
2018-01-19T05:41:28.788Z,97168.41
2018-01-19T05:43:56.484Z,97174.77
2018-01-19T05:46:23.929Z,97173.54
2018-01-19T05:48:51.372Z,97177.66
2018-01-19T05:51:19.239Z,97173.35
2018-01-19T05:53:46.690Z,97170.88
2018-01-19T05:56:14.140Z,97166.71
2018-01-19T05:58:42.245Z,97170.20
2018-01-19T06:01:09.694Z,97166.84
2018-01-19T06:03:37.141Z,97168.85
2018-01-19T06:06:04.940Z,97168.55
2018-01-19T06:08:32.431Z,97168.58
2018-01-19T06:10:59.855Z,97171.48
2018-01-19T06:13:27.609Z,97170.78
2018-01-19T06:15:55.057Z,97166.30
2018-01-19T06:18:22.506Z,97169.19
2018-01-19T06:20:50.309Z,97196.27
2018-01-19T06:23:17.765Z,97195.20
2018-01-19T06:25:45.224Z,97213.76
2018-01-19T06:28:13.297Z,97228.33
2018-01-19T06:30:40.732Z,97226.20
2018-01-19T06:33:08.177Z,97237.17
2018-01-19T06:35:36.596Z,97237.77
2018-01-19T06:38:04.046Z,97250.13
2018-01-19T06:40:31.489Z,97257.97
2018-01-19T06:42:59.280Z,97260.41
2018-01-19T06:45:26.729Z,97267.91
2018-01-19T06:47:54.182Z,97293.54
2018-01-19T06:50:21.972Z,97290.91
2018-01-19T06:52:49.420Z,97302.05
2018-01-19T06:55:16.864Z,97313.02
2018-01-19T06:57:44.524Z,97322.85
2018-01-19T07:00:11.969Z,97333.81
2018-01-19T07:02:39.416Z,97334.16
2018-01-19T07:05:07.356Z,97347.51
2018-01-19T07:07:34.805Z,97366.23
2018-01-19T07:10:02.248Z,97355.06
2018-01-19T07:12:30.043Z,97367.53
2018-01-19T07:14:57.492Z,97366.44
2018-01-19T07:17:24.935Z,97366.86
2018-01-19T07:19:53.040Z,97384.58
2018-01-19T07:22:20.495Z,97384.30
2018-01-19T07:24:47.955Z,97376.31
2018-01-19T07:27:16.024Z,97386.30
2018-01-19T07:29:43.468Z,97403.06
2018-01-19T07:32:10.932Z,97405.41
2018-01-19T07:34:38.705Z,97403.98
2018-01-19T07:37:08.385Z,97397.88
2018-01-19T07:39:35.852Z,97398.78
2018-01-19T07:42:03.562Z,97407.39
2018-01-19T07:44:31.005Z,97409.89
2018-01-19T07:46:58.449Z,97425.30
2018-01-19T07:49:26.232Z,97417.31
2018-01-19T07:51:53.681Z,97424.66
2018-01-19T07:54:21.134Z,97438.81
2018-01-19T07:56:49.227Z,97441.22
2018-01-19T07:59:16.664Z,97427.77
2018-01-19T08:01:44.117Z,97420.25
2018-01-19T08:04:11.908Z,97416.64
2018-01-19T08:06:39.354Z,97426.73
2018-01-19T08:09:06.806Z,97434.49
2018-01-19T08:11:34.607Z,97439.69
2018-01-19T08:14:02.057Z,97443.97
2018-01-19T08:16:29.504Z,97453.25
2018-01-19T08:18:57.193Z,97455.56
2018-01-19T08:21:24.642Z,97463.22
2018-01-19T08:23:52.090Z,97484.13
2018-01-19T08:26:20.615Z,97501.90
2018-01-19T08:28:48.066Z,97502.25
2018-01-19T08:31:15.682Z,97498.94
2018-01-19T08:33:43.585Z,97497.09
2018-01-19T08:36:11.041Z,97510.92
2018-01-19T08:38:39.181Z,97515.96
2018-01-19T08:41:07.180Z,97513.52
2018-01-19T08:43:34.625Z,97525.09
2018-01-19T08:46:02.073Z,97525.97
2018-01-19T08:48:30.061Z,97543.44
2018-01-19T08:50:57.536Z,97523.59
2018-01-19T08:53:24.968Z,97522.16
2018-01-19T08:55:53.484Z,97529.53
2018-01-19T08:58:20.925Z,97545.61
2018-01-19T09:00:48.365Z,97543.41
2018-01-19T09:03:16.072Z,97543.08
2018-01-19T09:05:43.527Z,97548.73
2018-01-19T09:08:10.969Z,97551.36
2018-01-19T09:10:38.852Z,97560.42
2018-01-19T09:13:06.313Z,97549.84
2018-01-19T09:15:33.760Z,97557.14
2018-01-19T09:18:01.558Z,97573.23
2018-01-19T09:20:29.011Z,97582.06
2018-01-19T09:22:56.460Z,97588.41
2018-01-19T09:25:24.229Z,97607.87
2018-01-19T09:27:51.669Z,97600.63
2018-01-19T09:30:19.112Z,97608.16
2018-01-19T09:32:46.935Z,97619.25
2018-01-19T09:35:14.375Z,97627.80
2018-01-19T09:37:41.854Z,97644.67
2018-01-19T09:40:11.140Z,97647.07
2018-01-19T09:42:38.580Z,97644.97
2018-01-19T09:45:06.032Z,97636.78
2018-01-19T09:47:33.733Z,97648.72
2018-01-19T09:50:01.184Z,97656.56
2018-01-19T09:52:28.632Z,97649.64
2018-01-19T09:54:56.512Z,97640.83
2018-01-19T09:57:23.964Z,97654.59
2018-01-19T09:59:51.425Z,97651.79
2018-01-19T10:02:19.221Z,97674.94
2018-01-19T10:04:46.712Z,97651.30
2018-01-19T10:07:14.160Z,97655.23
2018-01-19T10:09:41.896Z,97657.11
2018-01-19T10:12:09.331Z,97658.73
2018-01-19T10:14:36.773Z,97680.80
2018-01-19T10:17:05.243Z,97677.84
2018-01-19T10:19:32.676Z,97661.63
2018-01-19T10:22:00.130Z,97685.89
2018-01-19T10:24:27.886Z,97682.09
2018-01-19T10:26:55.324Z,97683.53
2018-01-19T10:29:22.764Z,97725.27
2018-01-19T10:31:51.493Z,97698.63
2018-01-19T10:34:18.939Z,97701.71
2018-01-19T10:36:46.384Z,97692.14
2018-01-19T10:39:14.181Z,97696.06
2018-01-19T10:41:42.001Z,97699.24
2018-01-19T10:44:09.460Z,97703.47
2018-01-19T10:46:37.465Z,97707.68
2018-01-19T10:49:04.936Z,97699.10
2018-01-19T10:51:32.378Z,97721.05
2018-01-19T10:54:00.213Z,97717.20
2018-01-19T10:56:27.650Z,97725.67
2018-01-19T10:58:55.092Z,97719.42
2018-01-19T11:01:22.888Z,97718.02
2018-01-19T11:03:50.312Z,97734.86
2018-01-19T11:06:17.757Z,97726.18
2018-01-19T11:08:45.537Z,97750.09
2018-01-19T11:11:12.977Z,97758.82
2018-01-19T11:13:40.416Z,97742.91
2018-01-19T11:16:08.221Z,97767.95
2018-01-19T11:18:35.667Z,97742.92
2018-01-19T11:21:03.106Z,97749.55
2018-01-19T11:23:30.955Z,97758.92
2018-01-19T11:25:58.397Z,97767.70
2018-01-19T11:28:25.836Z,97762.89
2018-01-19T11:30:53.593Z,97752.75
2018-01-19T11:33:21.044Z,97743.50
2018-01-19T11:35:48.503Z,97735.47
2018-01-19T11:38:16.588Z,97771.45
2018-01-19T11:40:44.037Z,97750.30
2018-01-19T11:43:11.880Z,97761.31
2018-01-19T11:45:42.350Z,97775.34
2018-01-19T11:48:09.798Z,97746.92
2018-01-19T11:50:37.237Z,97737.27
2018-01-19T11:53:05.037Z,97757.02
2018-01-19T11:55:32.477Z,97761.52
2018-01-19T11:57:59.919Z,97747.68
2018-01-19T12:00:27.683Z,97746.44
2018-01-19T12:02:55.125Z,97743.52
2018-01-19T12:05:22.565Z,97747.29
2018-01-19T12:07:50.713Z,97743.51
2018-01-19T12:10:18.157Z,97768.36
2018-01-19T12:12:45.601Z,97745.25
2018-01-19T12:15:13.373Z,97735.91
2018-01-19T12:17:40.817Z,97743.81
2018-01-19T12:20:08.291Z,97756.48
2018-01-19T12:22:37.029Z,97733.61
2018-01-19T12:25:04.485Z,97754.80
2018-01-19T12:34:15.613Z,97810.86
2018-01-19T12:36:43.055Z,97759.30
2018-01-19T12:39:10.501Z,97790.83
2018-01-19T12:41:38.605Z,97800.52
2018-01-19T12:44:06.449Z,97838.48
2018-01-19T12:46:33.904Z,97846.39
2018-01-19T12:49:01.903Z,97837.65
2018-01-19T12:51:29.336Z,97806.55
2018-01-19T12:53:56.783Z,97811.52
2018-01-19T12:56:24.491Z,97808.39
2018-01-19T12:58:51.929Z,97788.88
2018-01-19T13:01:19.368Z,97776.30
2018-01-19T13:03:47.054Z,97754.13
2018-01-19T13:06:14.489Z,97753.60
2018-01-19T13:08:41.945Z,97753.52
2018-01-19T13:11:09.880Z,97752.73
2018-01-19T13:13:37.337Z,97753.14
2018-01-19T13:16:04.788Z,97747.63
2018-01-19T13:18:32.652Z,97745.77
2018-01-19T13:21:00.096Z,97750.42
2018-01-19T13:23:27.555Z,97752.84
2018-01-19T13:25:55.416Z,97765.17
2018-01-19T13:28:22.869Z,97770.00
2018-01-19T13:30:50.313Z,97749.79
2018-01-19T13:33:18.012Z,97754.77
2018-01-19T13:35:45.463Z,97758.70
2018-01-19T13:38:12.906Z,97758.02
2018-01-19T13:40:40.717Z,97767.45
2018-01-19T13:43:08.160Z,97761.19
2018-01-19T13:45:36.323Z,97772.32
2018-01-19T13:48:04.319Z,97752.28
2018-01-19T13:50:31.760Z,97769.97
2018-01-19T13:52:59.204Z,97758.88
2018-01-19T13:55:27.001Z,97754.06
2018-01-19T13:57:54.436Z,97754.64
2018-01-19T14:00:21.885Z,97744.00
2018-01-19T14:02:49.601Z,97747.08
2018-01-19T14:05:17.037Z,97762.51
2018-01-19T14:07:44.684Z,97762.08
2018-01-19T14:10:12.691Z,97760.30
2018-01-19T14:12:40.127Z,97781.23
2018-01-19T14:15:07.573Z,97766.40
2018-01-19T14:17:35.374Z,97772.91
2018-01-19T14:20:02.810Z,97774.92
2018-01-19T14:22:30.244Z,97783.57
2018-01-19T14:24:57.971Z,97767.72
2018-01-19T14:27:25.458Z,97765.93
2018-01-19T14:29:52.907Z,97787.86
2018-01-19T14:32:20.745Z,97775.73
2018-01-19T14:34:48.176Z,97778.69
2018-01-19T14:37:15.612Z,97782.77
2018-01-19T14:39:43.437Z,97783.41
2018-01-19T14:42:10.877Z,97789.88
2018-01-19T14:44:38.416Z,97795.38
2018-01-19T14:47:07.651Z,97800.12
2018-01-19T14:49:35.097Z,97805.03
2018-01-19T14:52:02.536Z,97812.42
2018-01-19T14:54:30.301Z,97818.00
2018-01-19T14:56:57.750Z,97808.50
2018-01-19T14:59:25.193Z,97826.13
2018-01-19T15:01:53.043Z,97827.88
2018-01-19T15:04:20.493Z,97823.84
2018-01-19T15:06:47.931Z,97834.30
2018-01-19T15:09:15.715Z,97825.27
2018-01-19T15:11:43.175Z,97833.23
2018-01-19T15:14:10.618Z,97830.04
2018-01-19T15:16:38.400Z,97830.69
2018-01-19T15:19:05.849Z,97821.70
2018-01-19T15:21:33.304Z,97820.21
2018-01-19T15:24:01.105Z,97817.38
2018-01-19T15:26:28.551Z,97821.55
2018-01-19T15:28:55.993Z,97818.38
2018-01-19T15:31:23.778Z,97827.98
2018-01-19T15:33:51.217Z,97819.25
2018-01-19T15:36:18.654Z,97813.05
2018-01-19T15:38:46.468Z,97819.23
2018-01-19T15:41:13.909Z,97813.84
2018-01-19T15:43:41.362Z,97815.45
2018-01-19T15:46:09.142Z,97813.95
2018-01-19T15:48:36.990Z,97811.78
2018-01-19T15:51:04.440Z,97819.52
2018-01-19T15:53:32.450Z,97822.09
2018-01-19T15:55:59.892Z,97822.00
2018-01-19T15:58:27.339Z,97816.89
2018-01-19T16:00:55.137Z,97812.80
2018-01-19T16:03:22.573Z,97816.62
2018-01-19T16:05:50.017Z,97816.13
2018-01-19T16:08:17.821Z,97817.31
2018-01-19T16:10:45.259Z,97823.09
2018-01-19T16:13:12.700Z,97822.37
2018-01-19T16:15:40.517Z,97822.52
2018-01-19T16:18:07.957Z,97831.83
2018-01-19T16:20:35.401Z,97837.80
2018-01-19T16:23:02.988Z,97846.09
2018-01-19T16:25:30.431Z,97843.86
2018-01-19T16:27:57.873Z,97848.06
2018-01-19T16:30:25.580Z,97848.50
2018-01-19T16:32:53.020Z,97844.22
2018-01-19T16:35:20.460Z,97841.02
2018-01-19T16:37:48.094Z,97843.11
2018-01-19T16:40:15.556Z,97829.55
2018-01-19T16:42:43.007Z,97829.31
2018-01-19T16:45:11.261Z,97827.00
2018-01-19T16:47:38.701Z,97815.56
2018-01-19T16:50:06.865Z,97817.29
2018-01-19T16:52:34.563Z,97826.69
2018-01-19T16:55:02.010Z,97834.05
2018-01-19T16:57:29.457Z,97837.35
2018-01-19T16:59:57.289Z,97840.54
2018-01-19T17:02:24.740Z,97845.94
2018-01-19T17:04:52.180Z,97846.80
2018-01-19T17:07:19.932Z,97842.02
2018-01-19T17:09:47.378Z,97834.16
2018-01-19T17:12:14.911Z,97838.68
2018-01-19T17:14:42.644Z,97839.23
2018-01-19T17:17:10.089Z,97844.30
2018-01-19T17:19:37.524Z,97842.89
2018-01-19T17:22:05.484Z,97847.20
2018-01-19T17:24:32.941Z,97855.47
2018-01-19T17:27:00.395Z,97856.36
2018-01-19T17:29:28.647Z,97863.33
2018-01-19T17:31:56.101Z,97852.48
2018-01-19T17:34:23.544Z,97854.81
2018-01-19T17:36:51.302Z,97851.17
2018-01-19T17:39:18.747Z,97856.84
2018-01-19T17:41:46.192Z,97854.94
2018-01-19T17:44:13.993Z,97851.87
2018-01-19T17:46:41.440Z,97853.98
2018-01-19T17:49:08.887Z,97857.02
2018-01-19T17:51:36.989Z,97857.59
2018-01-19T17:54:04.427Z,97868.48
2018-01-19T17:56:31.886Z,97867.17
2018-01-19T17:58:59.679Z,97875.70
2018-01-19T18:01:27.172Z,97873.70
2018-01-19T18:03:54.596Z,97877.23
2018-01-19T18:06:22.348Z,97878.17
2018-01-19T18:08:49.786Z,97875.67
2018-01-19T18:11:17.276Z,97873.52
2018-01-19T18:13:46.616Z,97874.77
2018-01-19T18:16:14.082Z,97872.67
2018-01-19T18:18:41.735Z,97864.48
2018-01-19T18:21:09.588Z,97868.67
2018-01-19T18:23:37.047Z,97875.32
2018-01-19T18:26:04.486Z,97873.08
2018-01-19T18:28:32.258Z,97871.64
2018-01-19T18:30:59.726Z,97859.47
2018-01-19T18:33:27.487Z,97858.03
2018-01-19T18:35:55.212Z,97855.31
2018-01-19T18:38:23.408Z,97853.39
2018-01-19T18:40:51.129Z,97856.86
2018-01-19T18:43:18.829Z,97865.03
2018-01-19T18:45:46.281Z,97860.80
2018-01-19T18:48:13.748Z,97853.91
2018-01-19T18:50:41.541Z,97860.17
2018-01-19T18:53:10.950Z,97857.20
2018-01-19T18:55:38.402Z,97854.83
2018-01-19T18:58:06.385Z,97855.30
2018-01-19T19:00:34.057Z,97858.49
2018-01-19T19:03:02.092Z,97859.84
2018-01-19T19:05:30.772Z,97859.08
2018-01-19T19:07:58.877Z,97862.36
2018-01-19T19:10:26.703Z,97867.91
2018-01-19T19:12:55.153Z,97867.72
2018-01-19T19:15:22.842Z,97866.78
2018-01-19T19:17:50.992Z,97860.45
2018-01-19T19:20:19.230Z,97867.41
2018-01-19T19:22:47.322Z,97867.95
2018-01-19T19:25:15.570Z,97872.13
2018-01-19T19:27:44.023Z,97867.50
2018-01-19T19:30:11.915Z,97868.48
2018-01-19T19:32:40.049Z,97874.37
2018-01-19T19:35:08.841Z,97875.02
2018-01-19T19:37:36.569Z,97880.62
2018-01-19T19:40:04.037Z,97891.77
2018-01-19T19:42:33.933Z,97894.41
2018-01-19T19:45:01.386Z,97899.03
2018-01-19T19:47:28.846Z,97899.08
2018-01-19T19:49:56.568Z,97904.47
2018-01-19T19:52:24.010Z,97905.68
2018-01-19T19:54:51.957Z,97900.55
2018-01-19T19:57:19.871Z,97907.78
2018-01-19T19:59:47.344Z,97903.30
2018-01-19T20:02:14.810Z,97901.91
2018-01-19T20:04:42.565Z,97907.13
2018-01-19T20:07:10.008Z,97903.69
2018-01-19T20:09:37.493Z,97898.41
2018-01-19T20:12:05.548Z,97888.59
2018-01-19T20:14:33.012Z,97890.86
2018-01-19T20:17:00.474Z,97884.87
2018-01-19T20:19:28.129Z,97882.84
2018-01-19T20:21:55.583Z,97887.99
2018-01-19T20:24:23.077Z,97895.29
2018-01-19T20:26:51.562Z,97899.56
2018-01-19T20:29:19.064Z,97902.24
2018-01-19T20:31:47.122Z,97906.02
2018-01-19T20:34:15.490Z,97910.96
2018-01-19T20:36:42.972Z,97912.67
2018-01-19T20:39:10.420Z,97917.81
2018-01-19T20:41:38.142Z,97908.23
2018-01-19T20:44:05.594Z,97909.03
2018-01-19T20:46:33.032Z,97908.70
2018-01-19T20:49:00.753Z,97914.28
2018-01-19T20:51:28.220Z,97910.92
2018-01-19T20:53:55.677Z,97911.61
2018-01-19T20:56:24.296Z,97918.14
2018-01-19T20:58:51.749Z,97915.56
2018-01-19T21:01:19.213Z,97917.47
2018-01-19T21:03:47.122Z,97905.01
2018-01-19T21:06:14.586Z,97912.51
2018-01-19T21:08:42.041Z,97919.94
2018-01-19T21:11:09.828Z,97922.03
2018-01-19T21:13:37.273Z,97919.05
2018-01-19T21:16:04.717Z,97917.38
2018-01-19T21:18:32.499Z,97913.90
2018-01-19T21:20:59.953Z,97913.37
2018-01-19T21:23:27.396Z,97911.61
2018-01-19T21:25:55.207Z,97916.08
2018-01-19T21:28:22.656Z,97914.00
2018-01-19T21:30:50.108Z,97913.80
2018-01-19T21:33:17.877Z,97916.47
2018-01-19T21:35:45.332Z,97915.06
2018-01-19T21:38:12.773Z,97910.99
2018-01-19T21:40:40.554Z,97912.78
2018-01-19T21:43:08.009Z,97911.25
2018-01-19T21:45:35.464Z,97909.83
2018-01-19T21:48:03.180Z,97909.11
2018-01-19T21:50:30.629Z,97913.84
2018-01-19T21:52:58.077Z,97915.72
2018-01-19T21:55:25.925Z,97917.07
2018-01-19T21:57:53.765Z,97932.46
2018-01-19T22:00:21.262Z,97936.48
2018-01-19T22:02:48.918Z,97932.75
2018-01-19T22:05:16.373Z,97927.20
2018-01-19T22:07:43.835Z,97925.49
2018-01-19T22:10:11.622Z,97923.16
2018-01-19T22:12:39.087Z,97933.50
2018-01-19T22:15:06.539Z,97932.66
2018-01-19T22:17:34.297Z,97932.16
2018-01-19T22:20:01.762Z,97929.85
2018-01-19T22:22:29.214Z,97928.02
2018-01-19T22:24:58.220Z,97926.30
2018-01-19T22:27:25.681Z,97925.23
2018-01-19T22:29:53.127Z,97934.05
2018-01-19T22:32:20.913Z,97937.02
2018-01-19T22:34:48.369Z,97930.53
2018-01-19T22:37:16.746Z,97931.09
2018-01-19T22:39:44.515Z,97931.94
2018-01-19T22:42:12.004Z,97923.67
2018-01-19T22:44:39.459Z,97918.88
2018-01-19T22:47:07.209Z,97911.95
2018-01-19T22:49:34.662Z,97910.75
2018-01-19T22:52:02.147Z,97907.93
2018-01-19T22:54:29.898Z,97903.13
2018-01-19T22:56:57.345Z,97895.52
2018-01-19T22:59:25.497Z,97895.59
2018-01-19T23:01:53.496Z,97892.47
2018-01-19T23:04:20.952Z,97896.70
2018-01-19T23:06:48.401Z,97888.01
2018-01-19T23:09:16.179Z,97889.35
2018-01-19T23:11:43.636Z,97884.58
2018-01-19T23:14:11.091Z,97895.16
2018-01-19T23:16:38.868Z,97895.03
2018-01-19T23:19:06.316Z,97890.77
2018-01-19T23:21:33.772Z,97884.80
2018-01-19T23:24:01.554Z,97885.89
2018-01-19T23:26:29.000Z,97880.20
2018-01-19T23:28:56.449Z,97882.48
2018-01-19T23:31:24.253Z,97885.38
2018-01-19T23:33:51.707Z,97869.17
2018-01-19T23:36:19.161Z,97865.11
2018-01-19T23:38:46.932Z,97861.44
2018-01-19T23:41:14.379Z,97873.20
2018-01-19T23:43:41.828Z,97877.11
2018-01-19T23:46:09.612Z,97871.75
2018-01-19T23:48:37.061Z,97873.00
2018-01-19T23:51:04.512Z,97866.97
2018-01-19T23:53:32.488Z,97860.30
2018-01-19T23:55:59.950Z,97871.70
2018-01-19T23:58:27.405Z,97878.17
